sensor_id;sensor_type;location;lat;lon;timestamp;P1;durP1;ratioP1;P2;durP2;ratioP2
19883;SDS011;10104;50.732;10.174;2024-01-25T00:00:04;18.30;;;4.40;;
19883;SDS011;10104;50.732;10.174;2024-01-25T00:02:45;20.83;;;4.03;;
19883;SDS011;10104;50.732;10.174;2024-01-25T00:05:25;21.27;;;4.13;;
19883;SDS011;10104;50.732;10.174;2024-01-25T00:08:05;18.00;;;4.40;;
19883;SDS011;10104;50.732;10.174;2024-01-25T00:10:46;17.73;;;3.23;;
19883;SDS011;10104;50.732;10.174;2024-01-25T00:13:26;16.47;;;3.60;;
19883;SDS011;10104;50.732;10.174;2024-01-25T00:16:06;15.93;;;2.90;;
19883;SDS011;10104;50.732;10.174;2024-01-25T00:18:47;18.37;;;4.13;;
19883;SDS011;10104;50.732;10.174;2024-01-25T00:21:28;15.00;;;3.80;;
19883;SDS011;10104;50.732;10.174;2024-01-25T00:24:08;17.10;;;4.20;;
19883;SDS011;10104;50.732;10.174;2024-01-25T00:26:48;16.30;;;3.27;;
19883;SDS011;10104;50.732;10.174;2024-01-25T00:29:30;20.07;;;3.70;;
19883;SDS011;10104;50.732;10.174;2024-01-25T00:32:10;18.47;;;3.77;;
19883;SDS011;10104;50.732;10.174;2024-01-25T00:34:51;21.47;;;4.33;;
19883;SDS011;10104;50.732;10.174;2024-01-25T00:37:31;14.33;;;3.30;;
19883;SDS011;10104;50.732;10.174;2024-01-25T00:40:12;19.63;;;4.63;;
19883;SDS011;10104;50.732;10.174;2024-01-25T00:42:53;25.77;;;4.40;;
19883;SDS011;10104;50.732;10.174;2024-01-25T00:45:34;19.57;;;4.23;;
19883;SDS011;10104;50.732;10.174;2024-01-25T00:48:14;23.30;;;4.43;;
19883;SDS011;10104;50.732;10.174;2024-01-25T00:50:55;14.70;;;3.93;;
19883;SDS011;10104;50.732;10.174;2024-01-25T00:53:36;19.97;;;4.27;;
19883;SDS011;10104;50.732;10.174;2024-01-25T00:56:16;19.70;;;4.10;;
19883;SDS011;10104;50.732;10.174;2024-01-25T00:58:57;15.70;;;4.00;;
19883;SDS011;10104;50.732;10.174;2024-01-25T01:01:37;24.47;;;3.83;;
19883;SDS011;10104;50.732;10.174;2024-01-25T01:04:20;20.70;;;4.10;;
19883;SDS011;10104;50.732;10.174;2024-01-25T01:07:02;19.13;;;4.30;;
19883;SDS011;10104;50.732;10.174;2024-01-25T01:09:43;23.63;;;4.10;;
19883;SDS011;10104;50.732;10.174;2024-01-25T01:12:24;29.60;;;5.70;;
19883;SDS011;10104;50.732;10.174;2024-01-25T01:15:04;22.50;;;4.57;;
19883;SDS011;10104;50.732;10.174;2024-01-25T01:17:45;26.60;;;4.43;;
19883;SDS011;10104;50.732;10.174;2024-01-25T01:20:25;21.23;;;4.47;;
19883;SDS011;10104;50.732;10.174;2024-01-25T01:23:05;26.80;;;4.80;;
19883;SDS011;10104;50.732;10.174;2024-01-25T01:25:46;23.67;;;4.70;;
19883;SDS011;10104;50.732;10.174;2024-01-25T01:28:26;21.77;;;4.30;;
19883;SDS011;10104;50.732;10.174;2024-01-25T01:31:07;23.40;;;4.90;;
19883;SDS011;10104;50.732;10.174;2024-01-25T01:33:47;20.93;;;5.23;;
19883;SDS011;10104;50.732;10.174;2024-01-25T01:36:27;16.07;;;3.57;;
19883;SDS011;10104;50.732;10.174;2024-01-25T01:39:07;30.30;;;4.13;;
19883;SDS011;10104;50.732;10.174;2024-01-25T01:41:48;21.43;;;4.67;;
19883;SDS011;10104;50.732;10.174;2024-01-25T01:44:29;21.60;;;5.17;;
19883;SDS011;10104;50.732;10.174;2024-01-25T01:47:09;23.17;;;4.43;;
19883;SDS011;10104;50.732;10.174;2024-01-25T01:49:49;23.27;;;4.33;;
19883;SDS011;10104;50.732;10.174;2024-01-25T01:52:30;22.27;;;5.07;;
19883;SDS011;10104;50.732;10.174;2024-01-25T01:55:11;20.90;;;3.77;;
19883;SDS011;10104;50.732;10.174;2024-01-25T01:57:52;26.13;;;4.97;;
19883;SDS011;10104;50.732;10.174;2024-01-25T02:00:32;23.83;;;4.73;;
19883;SDS011;10104;50.732;10.174;2024-01-25T02:03:13;25.57;;;4.83;;
19883;SDS011;10104;50.732;10.174;2024-01-25T02:05:54;19.40;;;4.53;;
19883;SDS011;10104;50.732;10.174;2024-01-25T02:08:34;24.00;;;5.63;;
19883;SDS011;10104;50.732;10.174;2024-01-25T02:11:15;19.27;;;3.97;;
19883;SDS011;10104;50.732;10.174;2024-01-25T02:13:56;23.47;;;4.50;;
19883;SDS011;10104;50.732;10.174;2024-01-25T02:16:36;26.47;;;4.27;;
19883;SDS011;10104;50.732;10.174;2024-01-25T02:19:17;19.77;;;3.87;;
19883;SDS011;10104;50.732;10.174;2024-01-25T02:21:57;19.43;;;4.13;;
19883;SDS011;10104;50.732;10.174;2024-01-25T02:24:39;18.83;;;4.63;;
19883;SDS011;10104;50.732;10.174;2024-01-25T02:27:19;22.50;;;4.23;;
19883;SDS011;10104;50.732;10.174;2024-01-25T02:30:00;23.87;;;5.13;;
19883;SDS011;10104;50.732;10.174;2024-01-25T02:32:42;19.30;;;3.83;;
19883;SDS011;10104;50.732;10.174;2024-01-25T02:35:23;15.07;;;4.03;;
19883;SDS011;10104;50.732;10.174;2024-01-25T02:38:03;22.40;;;4.37;;
19883;SDS011;10104;50.732;10.174;2024-01-25T02:40:43;18.47;;;4.03;;
19883;SDS011;10104;50.732;10.174;2024-01-25T02:43:24;19.17;;;3.60;;
19883;SDS011;10104;50.732;10.174;2024-01-25T02:46:04;19.23;;;4.43;;
19883;SDS011;10104;50.732;10.174;2024-01-25T02:48:44;20.37;;;4.23;;
19883;SDS011;10104;50.732;10.174;2024-01-25T02:51:25;20.33;;;4.20;;
19883;SDS011;10104;50.732;10.174;2024-01-25T02:54:05;21.40;;;3.90;;
19883;SDS011;10104;50.732;10.174;2024-01-25T02:56:45;16.63;;;4.47;;
19883;SDS011;10104;50.732;10.174;2024-01-25T02:59:25;17.90;;;4.23;;
19883;SDS011;10104;50.732;10.174;2024-01-25T03:02:06;19.03;;;5.07;;
19883;SDS011;10104;50.732;10.174;2024-01-25T03:04:46;18.70;;;4.37;;
19883;SDS011;10104;50.732;10.174;2024-01-25T03:07:26;22.10;;;4.67;;
19883;SDS011;10104;50.732;10.174;2024-01-25T03:10:07;23.03;;;4.67;;
19883;SDS011;10104;50.732;10.174;2024-01-25T03:12:48;18.60;;;4.57;;
19883;SDS011;10104;50.732;10.174;2024-01-25T03:15:29;27.70;;;5.43;;
19883;SDS011;10104;50.732;10.174;2024-01-25T03:18:10;21.23;;;4.57;;
19883;SDS011;10104;50.732;10.174;2024-01-25T03:20:51;27.07;;;5.10;;
19883;SDS011;10104;50.732;10.174;2024-01-25T03:23:31;20.07;;;5.33;;
19883;SDS011;10104;50.732;10.174;2024-01-25T03:26:11;21.50;;;4.73;;
19883;SDS011;10104;50.732;10.174;2024-01-25T03:28:51;18.13;;;4.40;;
19883;SDS011;10104;50.732;10.174;2024-01-25T03:31:31;21.40;;;5.10;;
19883;SDS011;10104;50.732;10.174;2024-01-25T03:34:12;23.40;;;4.67;;
19883;SDS011;10104;50.732;10.174;2024-01-25T03:36:53;26.00;;;5.97;;
19883;SDS011;10104;50.732;10.174;2024-01-25T03:39:34;18.03;;;4.00;;
19883;SDS011;10104;50.732;10.174;2024-01-25T03:42:14;22.87;;;5.03;;
19883;SDS011;10104;50.732;10.174;2024-01-25T03:44:54;31.37;;;6.00;;
19883;SDS011;10104;50.732;10.174;2024-01-25T03:47:35;22.27;;;5.43;;
19883;SDS011;10104;50.732;10.174;2024-01-25T03:50:15;20.10;;;4.93;;
19883;SDS011;10104;50.732;10.174;2024-01-25T03:52:55;19.97;;;4.63;;
19883;SDS011;10104;50.732;10.174;2024-01-25T03:55:36;24.37;;;4.70;;
19883;SDS011;10104;50.732;10.174;2024-01-25T03:58:17;20.60;;;5.43;;
19883;SDS011;10104;50.732;10.174;2024-01-25T04:00:58;34.33;;;6.43;;
19883;SDS011;10104;50.732;10.174;2024-01-25T04:03:38;24.67;;;5.03;;
19883;SDS011;10104;50.732;10.174;2024-01-25T04:06:19;26.77;;;6.20;;
19883;SDS011;10104;50.732;10.174;2024-01-25T04:09:00;22.43;;;5.60;;
19883;SDS011;10104;50.732;10.174;2024-01-25T04:11:40;25.97;;;5.50;;
19883;SDS011;10104;50.732;10.174;2024-01-25T04:14:20;23.67;;;6.00;;
19883;SDS011;10104;50.732;10.174;2024-01-25T04:17:00;25.27;;;4.97;;
19883;SDS011;10104;50.732;10.174;2024-01-25T04:19:41;23.73;;;5.00;;
19883;SDS011;10104;50.732;10.174;2024-01-25T04:22:21;28.03;;;4.83;;
19883;SDS011;10104;50.732;10.174;2024-01-25T04:25:02;24.17;;;6.20;;
19883;SDS011;10104;50.732;10.174;2024-01-25T04:27:43;19.27;;;5.07;;
19883;SDS011;10104;50.732;10.174;2024-01-25T04:30:23;31.90;;;5.43;;
19883;SDS011;10104;50.732;10.174;2024-01-25T04:33:03;27.93;;;5.20;;
19883;SDS011;10104;50.732;10.174;2024-01-25T04:35:44;25.27;;;5.63;;
19883;SDS011;10104;50.732;10.174;2024-01-25T04:38:25;19.73;;;5.17;;
19883;SDS011;10104;50.732;10.174;2024-01-25T04:41:05;30.00;;;6.30;;
19883;SDS011;10104;50.732;10.174;2024-01-25T04:43:46;19.53;;;4.73;;
19883;SDS011;10104;50.732;10.174;2024-01-25T04:46:26;25.43;;;5.43;;
19883;SDS011;10104;50.732;10.174;2024-01-25T04:49:07;19.03;;;5.17;;
19883;SDS011;10104;50.732;10.174;2024-01-25T04:51:48;23.80;;;5.20;;
19883;SDS011;10104;50.732;10.174;2024-01-25T04:54:30;19.53;;;5.43;;
19883;SDS011;10104;50.732;10.174;2024-01-25T04:57:10;18.63;;;4.90;;
19883;SDS011;10104;50.732;10.174;2024-01-25T04:59:50;23.13;;;4.90;;
19883;SDS011;10104;50.732;10.174;2024-01-25T05:02:30;23.67;;;5.37;;
19883;SDS011;10104;50.732;10.174;2024-01-25T05:05:11;22.37;;;5.20;;
19883;SDS011;10104;50.732;10.174;2024-01-25T05:07:51;22.97;;;5.60;;
19883;SDS011;10104;50.732;10.174;2024-01-25T05:10:32;26.20;;;5.33;;
19883;SDS011;10104;50.732;10.174;2024-01-25T05:13:12;23.27;;;4.87;;
19883;SDS011;10104;50.732;10.174;2024-01-25T05:15:52;20.73;;;5.03;;
19883;SDS011;10104;50.732;10.174;2024-01-25T05:18:32;24.87;;;5.40;;
19883;SDS011;10104;50.732;10.174;2024-01-25T05:21:13;20.90;;;5.83;;
19883;SDS011;10104;50.732;10.174;2024-01-25T05:23:53;17.27;;;4.77;;
19883;SDS011;10104;50.732;10.174;2024-01-25T05:26:33;21.57;;;5.10;;
19883;SDS011;10104;50.732;10.174;2024-01-25T05:29:13;22.80;;;6.10;;
19883;SDS011;10104;50.732;10.174;2024-01-25T05:31:54;22.97;;;5.73;;
19883;SDS011;10104;50.732;10.174;2024-01-25T05:34:34;25.00;;;5.83;;
19883;SDS011;10104;50.732;10.174;2024-01-25T05:37:14;22.13;;;5.40;;
19883;SDS011;10104;50.732;10.174;2024-01-25T05:39:55;25.40;;;5.43;;
19883;SDS011;10104;50.732;10.174;2024-01-25T05:42:35;22.67;;;5.97;;
19883;SDS011;10104;50.732;10.174;2024-01-25T05:45:16;17.70;;;5.13;;
19883;SDS011;10104;50.732;10.174;2024-01-25T05:47:59;24.30;;;5.87;;
19883;SDS011;10104;50.732;10.174;2024-01-25T05:50:39;18.57;;;4.83;;
19883;SDS011;10104;50.732;10.174;2024-01-25T05:53:19;18.87;;;5.30;;
19883;SDS011;10104;50.732;10.174;2024-01-25T05:56:01;25.53;;;5.63;;
19883;SDS011;10104;50.732;10.174;2024-01-25T05:58:43;19.57;;;5.57;;
19883;SDS011;10104;50.732;10.174;2024-01-25T06:01:24;29.83;;;5.70;;
19883;SDS011;10104;50.732;10.174;2024-01-25T06:04:05;21.80;;;4.80;;
19883;SDS011;10104;50.732;10.174;2024-01-25T06:06:45;18.37;;;5.43;;
19883;SDS011;10104;50.732;10.174;2024-01-25T06:09:26;22.00;;;5.67;;
19883;SDS011;10104;50.732;10.174;2024-01-25T06:12:06;20.27;;;4.93;;
19883;SDS011;10104;50.732;10.174;2024-01-25T06:14:47;19.60;;;4.87;;
19883;SDS011;10104;50.732;10.174;2024-01-25T06:17:27;25.13;;;5.87;;
19883;SDS011;10104;50.732;10.174;2024-01-25T06:20:08;23.53;;;5.23;;
19883;SDS011;10104;50.732;10.174;2024-01-25T06:22:50;26.33;;;5.67;;
19883;SDS011;10104;50.732;10.174;2024-01-25T06:25:31;16.33;;;5.47;;
19883;SDS011;10104;50.732;10.174;2024-01-25T06:28:11;21.13;;;5.20;;
19883;SDS011;10104;50.732;10.174;2024-01-25T06:30:52;18.77;;;5.27;;
19883;SDS011;10104;50.732;10.174;2024-01-25T06:33:32;20.13;;;4.83;;
19883;SDS011;10104;50.732;10.174;2024-01-25T06:36:13;18.63;;;4.70;;
19883;SDS011;10104;50.732;10.174;2024-01-25T06:38:56;24.10;;;5.30;;
19883;SDS011;10104;50.732;10.174;2024-01-25T06:41:36;24.17;;;4.90;;
19883;SDS011;10104;50.732;10.174;2024-01-25T06:44:16;18.87;;;4.40;;
19883;SDS011;10104;50.732;10.174;2024-01-25T06:46:57;20.40;;;5.37;;
19883;SDS011;10104;50.732;10.174;2024-01-25T06:49:37;16.57;;;5.07;;
19883;SDS011;10104;50.732;10.174;2024-01-25T06:52:18;18.50;;;4.57;;
19883;SDS011;10104;50.732;10.174;2024-01-25T06:54:59;23.77;;;6.20;;
19883;SDS011;10104;50.732;10.174;2024-01-25T06:57:39;16.50;;;5.40;;
19883;SDS011;10104;50.732;10.174;2024-01-25T07:00:20;21.80;;;5.20;;
19883;SDS011;10104;50.732;10.174;2024-01-25T07:03:01;19.43;;;4.90;;
19883;SDS011;10104;50.732;10.174;2024-01-25T07:05:42;15.60;;;4.40;;
19883;SDS011;10104;50.732;10.174;2024-01-25T07:08:22;19.80;;;4.77;;
19883;SDS011;10104;50.732;10.174;2024-01-25T07:11:04;22.10;;;5.10;;
19883;SDS011;10104;50.732;10.174;2024-01-25T07:13:44;20.70;;;5.37;;
19883;SDS011;10104;50.732;10.174;2024-01-25T07:16:24;17.60;;;4.63;;
19883;SDS011;10104;50.732;10.174;2024-01-25T07:19:05;24.13;;;5.43;;
19883;SDS011;10104;50.732;10.174;2024-01-25T07:21:45;21.30;;;4.83;;
19883;SDS011;10104;50.732;10.174;2024-01-25T07:24:25;17.00;;;5.17;;
19883;SDS011;10104;50.732;10.174;2024-01-25T07:27:06;19.47;;;4.90;;
19883;SDS011;10104;50.732;10.174;2024-01-25T07:29:46;21.30;;;5.03;;
19883;SDS011;10104;50.732;10.174;2024-01-25T07:32:27;18.80;;;4.50;;
19883;SDS011;10104;50.732;10.174;2024-01-25T07:35:07;19.93;;;4.67;;
19883;SDS011;10104;50.732;10.174;2024-01-25T07:37:52;14.23;;;4.70;;
19883;SDS011;10104;50.732;10.174;2024-01-25T07:40:32;15.90;;;4.33;;
19883;SDS011;10104;50.732;10.174;2024-01-25T07:43:12;20.37;;;5.00;;
19883;SDS011;10104;50.732;10.174;2024-01-25T07:45:53;27.23;;;4.90;;
19883;SDS011;10104;50.732;10.174;2024-01-25T07:48:33;15.97;;;4.90;;
19883;SDS011;10104;50.732;10.174;2024-01-25T07:51:14;15.13;;;3.93;;
19883;SDS011;10104;50.732;10.174;2024-01-25T07:53:54;15.83;;;4.30;;
19883;SDS011;10104;50.732;10.174;2024-01-25T07:56:34;15.53;;;3.87;;
19883;SDS011;10104;50.732;10.174;2024-01-25T07:59:15;22.83;;;5.17;;
19883;SDS011;10104;50.732;10.174;2024-01-25T08:01:55;18.47;;;4.67;;
19883;SDS011;10104;50.732;10.174;2024-01-25T08:04:35;17.23;;;5.00;;
19883;SDS011;10104;50.732;10.174;2024-01-25T08:07:16;15.73;;;4.60;;
19883;SDS011;10104;50.732;10.174;2024-01-25T08:09:56;15.30;;;4.37;;
19883;SDS011;10104;50.732;10.174;2024-01-25T08:12:38;14.67;;;4.47;;
19883;SDS011;10104;50.732;10.174;2024-01-25T08:15:27;18.80;;;4.30;;
19883;SDS011;10104;50.732;10.174;2024-01-25T08:18:07;21.77;;;4.80;;
19883;SDS011;10104;50.732;10.174;2024-01-25T08:20:47;15.00;;;4.73;;
19883;SDS011;10104;50.732;10.174;2024-01-25T08:23:28;17.53;;;4.30;;
19883;SDS011;10104;50.732;10.174;2024-01-25T08:26:08;19.27;;;3.87;;
19883;SDS011;10104;50.732;10.174;2024-01-25T08:28:52;14.57;;;4.47;;
19883;SDS011;10104;50.732;10.174;2024-01-25T08:31:33;13.90;;;4.20;;
19883;SDS011;10104;50.732;10.174;2024-01-25T08:34:13;15.60;;;3.90;;
19883;SDS011;10104;50.732;10.174;2024-01-25T08:36:55;14.47;;;4.03;;
19883;SDS011;10104;50.732;10.174;2024-01-25T08:39:35;13.70;;;4.50;;
19883;SDS011;10104;50.732;10.174;2024-01-25T08:42:16;17.23;;;4.13;;
19883;SDS011;10104;50.732;10.174;2024-01-25T08:44:57;15.40;;;4.30;;
19883;SDS011;10104;50.732;10.174;2024-01-25T08:47:37;14.63;;;4.70;;
19883;SDS011;10104;50.732;10.174;2024-01-25T08:50:18;12.13;;;3.77;;
19883;SDS011;10104;50.732;10.174;2024-01-25T08:52:58;20.23;;;5.00;;
19883;SDS011;10104;50.732;10.174;2024-01-25T08:55:39;16.70;;;4.37;;
19883;SDS011;10104;50.732;10.174;2024-01-25T08:58:20;15.57;;;4.43;;
19883;SDS011;10104;50.732;10.174;2024-01-25T09:01:01;16.20;;;3.80;;
19883;SDS011;10104;50.732;10.174;2024-01-25T09:03:42;19.93;;;4.30;;
19883;SDS011;10104;50.732;10.174;2024-01-25T09:06:22;15.77;;;4.40;;
19883;SDS011;10104;50.732;10.174;2024-01-25T09:09:02;19.90;;;5.10;;
19883;SDS011;10104;50.732;10.174;2024-01-25T09:11:43;12.17;;;3.80;;
19883;SDS011;10104;50.732;10.174;2024-01-25T09:14:24;14.10;;;4.43;;
19883;SDS011;10104;50.732;10.174;2024-01-25T09:17:04;16.57;;;4.23;;
19883;SDS011;10104;50.732;10.174;2024-01-25T09:19:45;15.63;;;4.20;;
19883;SDS011;10104;50.732;10.174;2024-01-25T09:22:25;13.53;;;4.20;;
19883;SDS011;10104;50.732;10.174;2024-01-25T09:25:06;16.13;;;4.13;;
19883;SDS011;10104;50.732;10.174;2024-01-25T09:27:49;12.33;;;4.03;;
19883;SDS011;10104;50.732;10.174;2024-01-25T09:30:29;23.20;;;4.53;;
19883;SDS011;10104;50.732;10.174;2024-01-25T09:33:09;14.93;;;4.37;;
19883;SDS011;10104;50.732;10.174;2024-01-25T09:35:50;16.07;;;4.80;;
19883;SDS011;10104;50.732;10.174;2024-01-25T09:38:31;15.67;;;4.10;;
19883;SDS011;10104;50.732;10.174;2024-01-25T09:41:12;18.30;;;3.90;;
19883;SDS011;10104;50.732;10.174;2024-01-25T09:43:54;15.60;;;4.23;;
19883;SDS011;10104;50.732;10.174;2024-01-25T09:46:34;20.27;;;3.53;;
19883;SDS011;10104;50.732;10.174;2024-01-25T09:49:15;16.57;;;4.33;;
19883;SDS011;10104;50.732;10.174;2024-01-25T09:51:55;17.10;;;4.47;;
19883;SDS011;10104;50.732;10.174;2024-01-25T09:54:36;15.60;;;4.63;;
19883;SDS011;10104;50.732;10.174;2024-01-25T09:57:16;13.30;;;3.47;;
19883;SDS011;10104;50.732;10.174;2024-01-25T10:00:03;12.90;;;3.80;;
19883;SDS011;10104;50.732;10.174;2024-01-25T10:02:43;15.60;;;4.23;;
19883;SDS011;10104;50.732;10.174;2024-01-25T10:05:24;22.30;;;4.37;;
19883;SDS011;10104;50.732;10.174;2024-01-25T10:08:11;15.50;;;4.40;;
19883;SDS011;10104;50.732;10.174;2024-01-25T10:10:53;14.90;;;3.90;;
19883;SDS011;10104;50.732;10.174;2024-01-25T10:14:07;19.40;;;4.53;;
19883;SDS011;10104;50.732;10.174;2024-01-25T10:16:41;12.00;;;3.50;;
19883;SDS011;10104;50.732;10.174;2024-01-25T10:19:21;17.30;;;4.23;;
19883;SDS011;10104;50.732;10.174;2024-01-25T10:22:04;12.00;;;3.70;;
19883;SDS011;10104;50.732;10.174;2024-01-25T10:24:47;15.83;;;3.80;;
19883;SDS011;10104;50.732;10.174;2024-01-25T10:27:30;14.97;;;3.50;;
19883;SDS011;10104;50.732;10.174;2024-01-25T10:30:11;17.40;;;4.47;;
19883;SDS011;10104;50.732;10.174;2024-01-25T10:32:52;12.83;;;4.30;;
19883;SDS011;10104;50.732;10.174;2024-01-25T10:35:35;12.40;;;3.80;;
19883;SDS011;10104;50.732;10.174;2024-01-25T10:38:17;17.73;;;3.50;;
19883;SDS011;10104;50.732;10.174;2024-01-25T10:40:59;17.80;;;3.80;;
19883;SDS011;10104;50.732;10.174;2024-01-25T10:43:41;17.90;;;3.67;;
19883;SDS011;10104;50.732;10.174;2024-01-25T10:46:21;16.27;;;3.70;;
19883;SDS011;10104;50.732;10.174;2024-01-25T10:49:03;17.67;;;3.70;;
19883;SDS011;10104;50.732;10.174;2024-01-25T10:51:44;14.33;;;3.70;;
19883;SDS011;10104;50.732;10.174;2024-01-25T10:54:26;17.73;;;4.13;;
19883;SDS011;10104;50.732;10.174;2024-01-25T10:57:06;14.70;;;3.20;;
19883;SDS011;10104;50.732;10.174;2024-01-25T10:59:48;14.87;;;3.83;;
19883;SDS011;10104;50.732;10.174;2024-01-25T11:02:29;12.87;;;3.30;;
19883;SDS011;10104;50.732;10.174;2024-01-25T11:05:10;13.37;;;2.90;;
19883;SDS011;10104;50.732;10.174;2024-01-25T11:07:52;16.97;;;3.67;;
19883;SDS011;10104;50.732;10.174;2024-01-25T11:10:34;12.90;;;3.00;;
19883;SDS011;10104;50.732;10.174;2024-01-25T11:13:16;12.83;;;3.40;;
19883;SDS011;10104;50.732;10.174;2024-01-25T11:15:56;13.87;;;3.47;;
19883;SDS011;10104;50.732;10.174;2024-01-25T11:18:46;10.47;;;2.97;;
19883;SDS011;10104;50.732;10.174;2024-01-25T11:24:27;13.27;;;3.47;;
19883;SDS011;10104;50.732;10.174;2024-01-25T11:27:07;12.30;;;3.30;;
19883;SDS011;10104;50.732;10.174;2024-01-25T11:29:50;13.43;;;3.30;;
19883;SDS011;10104;50.732;10.174;2024-01-25T11:32:30;10.43;;;3.20;;
19883;SDS011;10104;50.732;10.174;2024-01-25T11:35:10;12.10;;;3.20;;
19883;SDS011;10104;50.732;10.174;2024-01-25T11:37:53;15.30;;;3.40;;
19883;SDS011;10104;50.732;10.174;2024-01-25T11:40:34;15.67;;;3.40;;
19883;SDS011;10104;50.732;10.174;2024-01-25T11:43:17;13.80;;;3.80;;
19883;SDS011;10104;50.732;10.174;2024-01-25T11:45:57;10.83;;;2.83;;
19883;SDS011;10104;50.732;10.174;2024-01-25T11:48:40;11.80;;;3.60;;
19883;SDS011;10104;50.732;10.174;2024-01-25T11:51:22;15.90;;;3.30;;
19883;SDS011;10104;50.732;10.174;2024-01-25T11:54:02;9.73;;;3.10;;
19883;SDS011;10104;50.732;10.174;2024-01-25T11:56:47;18.23;;;4.50;;
19883;SDS011;10104;50.732;10.174;2024-01-25T11:59:28;14.63;;;3.57;;
19883;SDS011;10104;50.732;10.174;2024-01-25T12:02:08;13.80;;;3.00;;
19883;SDS011;10104;50.732;10.174;2024-01-25T12:04:49;10.97;;;3.50;;
19883;SDS011;10104;50.732;10.174;2024-01-25T12:07:30;15.57;;;4.30;;
19883;SDS011;10104;50.732;10.174;2024-01-25T12:10:15;16.70;;;3.77;;
19883;SDS011;10104;50.732;10.174;2024-01-25T12:12:57;12.07;;;3.30;;
19883;SDS011;10104;50.732;10.174;2024-01-25T12:15:38;12.90;;;3.80;;
19883;SDS011;10104;50.732;10.174;2024-01-25T12:18:18;16.43;;;3.77;;
19883;SDS011;10104;50.732;10.174;2024-01-25T12:20:59;13.13;;;2.93;;
19883;SDS011;10104;50.732;10.174;2024-01-25T12:23:41;14.47;;;3.43;;
19883;SDS011;10104;50.732;10.174;2024-01-25T12:26:23;10.77;;;3.50;;
19883;SDS011;10104;50.732;10.174;2024-01-25T12:29:03;10.40;;;3.30;;
19883;SDS011;10104;50.732;10.174;2024-01-25T12:31:45;21.77;;;4.03;;
19883;SDS011;10104;50.732;10.174;2024-01-25T12:34:25;13.30;;;3.80;;
19883;SDS011;10104;50.732;10.174;2024-01-25T12:37:06;19.23;;;3.70;;
19883;SDS011;10104;50.732;10.174;2024-01-25T12:39:47;17.77;;;3.70;;
19883;SDS011;10104;50.732;10.174;2024-01-25T12:42:27;18.33;;;4.47;;
19883;SDS011;10104;50.732;10.174;2024-01-25T12:45:08;15.43;;;3.80;;
19883;SDS011;10104;50.732;10.174;2024-01-25T12:47:48;14.80;;;3.67;;
19883;SDS011;10104;50.732;10.174;2024-01-25T12:50:29;18.73;;;3.83;;
19883;SDS011;10104;50.732;10.174;2024-01-25T12:53:11;15.03;;;3.70;;
19883;SDS011;10104;50.732;10.174;2024-01-25T12:55:51;13.57;;;3.10;;
19883;SDS011;10104;50.732;10.174;2024-01-25T12:58:32;14.50;;;3.60;;
19883;SDS011;10104;50.732;10.174;2024-01-25T13:01:12;12.03;;;2.83;;
19883;SDS011;10104;50.732;10.174;2024-01-25T13:03:55;14.13;;;3.53;;
19883;SDS011;10104;50.732;10.174;2024-01-25T13:06:36;17.37;;;3.47;;
19883;SDS011;10104;50.732;10.174;2024-01-25T13:09:16;11.30;;;3.10;;
19883;SDS011;10104;50.732;10.174;2024-01-25T13:11:57;15.83;;;3.30;;
19883;SDS011;10104;50.732;10.174;2024-01-25T13:14:37;15.73;;;3.23;;
19883;SDS011;10104;50.732;10.174;2024-01-25T13:17:17;18.77;;;3.37;;
19883;SDS011;10104;50.732;10.174;2024-01-25T13:19:57;14.00;;;3.63;;
19883;SDS011;10104;50.732;10.174;2024-01-25T13:22:37;14.70;;;3.80;;
19883;SDS011;10104;50.732;10.174;2024-01-25T13:25:18;10.97;;;2.73;;
19883;SDS011;10104;50.732;10.174;2024-01-25T13:27:58;18.10;;;3.40;;
19883;SDS011;10104;50.732;10.174;2024-01-25T13:30:39;14.53;;;3.17;;
19883;SDS011;10104;50.732;10.174;2024-01-25T13:33:19;9.27;;;2.70;;
19883;SDS011;10104;50.732;10.174;2024-01-25T13:36:00;13.63;;;3.23;;
19883;SDS011;10104;50.732;10.174;2024-01-25T13:38:40;13.97;;;3.37;;
19883;SDS011;10104;50.732;10.174;2024-01-25T13:41:21;15.00;;;3.17;;
19883;SDS011;10104;50.732;10.174;2024-01-25T13:44:01;9.57;;;2.87;;
19883;SDS011;10104;50.732;10.174;2024-01-25T13:46:42;16.33;;;3.53;;
19883;SDS011;10104;50.732;10.174;2024-01-25T13:49:22;12.10;;;3.00;;
19883;SDS011;10104;50.732;10.174;2024-01-25T13:52:02;16.30;;;3.13;;
19883;SDS011;10104;50.732;10.174;2024-01-25T13:54:43;13.67;;;3.20;;
19883;SDS011;10104;50.732;10.174;2024-01-25T13:57:23;17.90;;;3.50;;
19883;SDS011;10104;50.732;10.174;2024-01-25T14:00:04;11.53;;;3.00;;
19883;SDS011;10104;50.732;10.174;2024-01-25T14:02:44;12.90;;;3.33;;
19883;SDS011;10104;50.732;10.174;2024-01-25T14:05:25;18.13;;;3.50;;
19883;SDS011;10104;50.732;10.174;2024-01-25T14:08:05;13.10;;;3.40;;
19883;SDS011;10104;50.732;10.174;2024-01-25T14:10:46;17.20;;;3.00;;
19883;SDS011;10104;50.732;10.174;2024-01-25T14:13:26;12.30;;;3.13;;
19883;SDS011;10104;50.732;10.174;2024-01-25T14:16:06;11.90;;;3.37;;
19883;SDS011;10104;50.732;10.174;2024-01-25T14:18:47;15.80;;;3.47;;
19883;SDS011;10104;50.732;10.174;2024-01-25T14:21:27;11.37;;;3.40;;
19883;SDS011;10104;50.732;10.174;2024-01-25T14:24:08;15.90;;;3.97;;
19883;SDS011;10104;50.732;10.174;2024-01-25T14:26:49;19.73;;;4.23;;
19883;SDS011;10104;50.732;10.174;2024-01-25T14:29:30;24.27;;;4.20;;
19883;SDS011;10104;50.732;10.174;2024-01-25T14:32:12;17.07;;;3.40;;
19883;SDS011;10104;50.732;10.174;2024-01-25T14:34:53;21.30;;;4.13;;
19883;SDS011;10104;50.732;10.174;2024-01-25T14:37:33;20.77;;;3.70;;
19883;SDS011;10104;50.732;10.174;2024-01-25T14:40:13;15.00;;;3.67;;
19883;SDS011;10104;50.732;10.174;2024-01-25T14:43:14;16.10;;;4.07;;
19883;SDS011;10104;50.732;10.174;2024-01-25T14:45:55;19.67;;;4.43;;
19883;SDS011;10104;50.732;10.174;2024-01-25T14:48:35;13.93;;;3.97;;
19883;SDS011;10104;50.732;10.174;2024-01-25T14:51:16;19.63;;;3.70;;
19883;SDS011;10104;50.732;10.174;2024-01-25T14:53:56;17.90;;;4.47;;
19883;SDS011;10104;50.732;10.174;2024-01-25T14:56:37;19.47;;;4.40;;
19883;SDS011;10104;50.732;10.174;2024-01-25T14:59:18;18.27;;;3.53;;
19883;SDS011;10104;50.732;10.174;2024-01-25T15:01:58;12.07;;;3.87;;
19883;SDS011;10104;50.732;10.174;2024-01-25T15:04:38;17.13;;;3.77;;
19883;SDS011;10104;50.732;10.174;2024-01-25T15:07:19;16.60;;;4.17;;
19883;SDS011;10104;50.732;10.174;2024-01-25T15:10:03;21.30;;;4.13;;
19883;SDS011;10104;50.732;10.174;2024-01-25T15:12:44;12.63;;;3.70;;
19883;SDS011;10104;50.732;10.174;2024-01-25T15:15:27;17.50;;;3.90;;
19883;SDS011;10104;50.732;10.174;2024-01-25T15:18:08;18.23;;;4.27;;
19883;SDS011;10104;50.732;10.174;2024-01-25T15:20:48;14.40;;;4.10;;
19883;SDS011;10104;50.732;10.174;2024-01-25T15:23:29;16.50;;;4.27;;
19883;SDS011;10104;50.732;10.174;2024-01-25T15:26:09;18.30;;;4.20;;
19883;SDS011;10104;50.732;10.174;2024-01-25T15:28:50;19.73;;;4.23;;
19883;SDS011;10104;50.732;10.174;2024-01-25T15:31:31;15.80;;;4.40;;
19883;SDS011;10104;50.732;10.174;2024-01-25T15:34:11;17.90;;;4.83;;
19883;SDS011;10104;50.732;10.174;2024-01-25T15:36:51;18.67;;;4.40;;
19883;SDS011;10104;50.732;10.174;2024-01-25T15:39:32;15.20;;;4.60;;
19883;SDS011;10104;50.732;10.174;2024-01-25T15:42:12;16.00;;;4.10;;